Time;durP1;ratioP1;P1;durP2;ratioP2;P2;SDS_P1;SDS_P2;PMS_P1;PMS_P2;Temp;Humidity;BMP_temperature;BMP_pressure;BME280_temperature;BME280_humidity;BME280_pressure;Samples;Min_cycle;Max_cycle;Signal;HPM_P1;HPM_P2
2021/06/28 00:00:42;;;;;;;13.02;10.23;;;;;;;18.51;100.00;100974.41;5085541;28;20039;-84
2021/06/28 00:03:08;;;;;;;11.63;9.05;;;;;;;18.48;100.00;100972.97;5080438;28;20041;-85
2021/06/28 00:05:33;;;;;;;14.68;9.82;;;;;;;18.46;99.78;100960.63;5079969;28;20042;-84
2021/06/28 00:07:59;;;;;;;13.88;9.88;;;;;;;18.40;100.00;100965.03;5080515;28;20808;-83
2021/06/28 00:10:27;;;;;;;13.25;9.57;;;;;;;18.42;100.00;100968.38;5071747;28;20463;-85
2021/06/28 00:12:55;;;;;;;14.75;11.65;;;;;;;18.41;100.00;100963.13;5066115;28;20122;-84
2021/06/28 00:15:23;;;;;;;11.88;10.27;;;;;;;18.39;100.00;100966.09;5075263;28;20032;-85
2021/06/28 00:17:50;;;;;;;12.67;10.53;;;;;;;18.39;100.00;100970.69;5087570;28;20028;-85
2021/06/28 00:20:17;;;;;;;13.48;11.45;;;;;;;18.36;99.75;100962.97;5073138;28;20099;-84
2021/06/28 00:22:45;;;;;;;14.02;11.02;;;;;;;18.34;100.00;100965.88;5088784;28;20067;-84
2021/06/28 00:25:12;;;;;;;12.77;10.60;;;;;;;18.34;99.57;100970.47;5082649;28;20060;-84
2021/06/28 00:27:42;;;;;;;14.80;10.07;;;;;;;18.23;100.00;100966.50;5059502;28;20054;-84
2021/06/28 00:30:10;;;;;;;15.40;10.85;;;;;;;18.33;100.00;100960.66;5080887;28;20033;-83
2021/06/28 00:32:35;;;;;;;13.10;10.40;;;;;;;18.35;100.00;100970.25;5064947;28;20110;-84
2021/06/28 00:35:01;;;;;;;15.10;12.45;;;;;;;18.40;100.00;100965.03;5076988;28;20052;-84
2021/06/28 00:37:26;;;;;;;13.93;11.93;;;;;;;18.41;100.00;100960.41;5088281;28;20067;-84
2021/06/28 00:39:52;;;;;;;14.18;11.65;;;;;;;18.37;100.00;100968.16;5050197;28;20440;-84
2021/06/28 00:42:17;;;;;;;14.52;12.45;;;;;;;18.40;100.00;100956.03;5074767;28;20675;-84
2021/06/28 00:44:43;;;;;;;14.98;11.90;;;;;;;18.35;100.00;100958.56;5077057;28;20074;-84
2021/06/28 00:47:08;;;;;;;16.02;12.80;;;;;;;18.32;100.00;100953.53;5078896;28;20385;-83
2021/06/28 00:49:34;;;;;;;15.50;12.85;;;;;;;18.26;100.00;100955.22;5061682;28;20148;-84
2021/06/28 00:52:00;;;;;;;14.55;12.50;;;;;;;18.22;100.00;100959.41;5062399;28;20079;-85
2021/06/28 00:54:27;;;;;;;14.70;13.07;;;;;;;18.18;100.00;100959.00;5064715;28;20071;-86
2021/06/28 00:56:53;;;;;;;15.93;12.93;;;;;;;18.16;100.00;100955.66;5076800;28;20040;-84
2021/06/28 00:59:20;;;;;;;16.20;13.30;;;;;;;18.15;100.00;100956.69;5077412;28;20043;-84
2021/06/28 01:01:45;;;;;;;17.83;13.15;;;;;;;18.12;100.00;100953.56;5086819;28;20664;-84
2021/06/28 01:04:11;;;;;;;17.88;14.00;;;;;;;18.13;100.00;100949.81;5078473;28;20082;-84
2021/06/28 01:06:36;;;;;;;20.27;14.93;;;;;;;18.09;100.00;100949.38;5067236;28;20499;-85
2021/06/28 01:09:03;;;;;;;18.48;13.65;;;;;;;18.09;100.00;100940.41;5070321;28;20040;-85
2021/06/28 01:11:29;;;;;;;17.50;13.07;;;;;;;18.03;100.00;100945.63;5077067;28;20096;-85
2021/06/28 01:13:58;;;;;;;17.27;14.10;;;;;;;18.07;100.00;100946.06;5079425;28;20055;-85
2021/06/28 01:16:23;;;;;;;14.73;12.47;;;;;;;18.01;100.00;100952.31;5074791;28;20039;-85
2021/06/28 01:18:52;;;;;;;17.88;13.30;;;;;;;18.07;100.00;100942.50;5076040;28;20388;-84
2021/06/28 01:21:18;;;;;;;19.73;12.77;;;;;;;18.05;100.00;100931.84;5078901;28;20036;-85
2021/06/28 01:23:45;;;;;;;15.07;11.82;;;;;;;18.01;100.00;100934.16;5065182;28;20143;-84
2021/06/28 01:26:11;;;;;;;15.50;11.90;;;;;;;18.04;100.00;100935.63;5068532;28;20032;-85
2021/06/28 01:28:38;;;;;;;12.75;11.30;;;;;;;18.01;100.00;100933.31;5078411;28;20572;-83
2021/06/28 01:31:07;;;;;;;13.68;10.65;;;;;;;18.01;100.00;100928.72;5068327;28;20541;-85
2021/06/28 01:33:33;;;;;;;15.55;10.15;;;;;;;18.01;100.00;100917.00;5069294;28;20047;-84
2021/06/28 01:35:59;;;;;;;15.23;10.55;;;;;;;18.00;100.00;100921.63;5074090;28;20055;-85
2021/06/28 01:38:26;;;;;;;13.00;10.40;;;;;;;17.96;100.00;100924.97;5074360;28;20044;-85
2021/06/28 01:40:53;;;;;;;13.00;10.00;;;;;;;17.95;100.00;100926.00;5086063;28;20075;-85
2021/06/28 01:43:24;;;;;;;14.40;10.13;;;;;;;17.92;100.00;100926.41;5078434;28;20571;-86
2021/06/28 01:45:52;;;;;;;14.57;9.80;;;;;;;17.88;100.00;100933.31;5084218;28;20070;-85
2021/06/28 01:48:20;;;;;;;12.07;9.57;;;;;;;17.87;100.00;100923.53;5062304;28;20115;-84
2021/06/28 01:50:52;;;;;;;12.10;9.77;;;;;;;17.85;100.00;100925.59;5079597;28;20043;-84
2021/06/28 01:53:17;;;;;;;13.35;10.40;;;;;;;17.79;100.00;100911.81;5076764;28;20081;-84
2021/06/28 01:55:43;;;;;;;14.85;11.23;;;;;;;17.82;100.00;100926.84;5082851;28;20127;-84
2021/06/28 01:58:12;;;;;;;13.13;10.23;;;;;;;17.73;100.00;100915.34;5076298;28;20032;-84
2021/06/28 02:00:42;;;;;;;14.73;10.70;;;;;;;17.70;100.00;100915.75;5074329;28;20085;-83
2021/06/28 02:03:13;;;;;;;16.00;11.75;;;;;;;17.78;100.00;100912.00;5075202;28;20074;-84
2021/06/28 02:05:45;;;;;;;14.35;11.52;;;;;;;17.76;100.00;100905.94;5082989;28;20037;-84
2021/06/28 02:08:14;;;;;;;16.73;11.90;;;;;;;17.74;100.00;100910.75;5085646;28;20036;-84
2021/06/28 02:10:42;;;;;;;17.77;11.88;;;;;;;17.75;100.00;100921.41;5072601;28;20488;-83
2021/06/28 02:13:07;;;;;;;17.52;11.50;;;;;;;17.72;100.00;100912.81;5077104;28;20558;-84
2021/06/28 02:15:33;;;;;;;15.65;12.07;;;;;;;17.69;100.00;100911.34;5075946;28;20047;-84
2021/06/28 02:18:00;;;;;;;15.52;12.68;;;;;;;17.68;100.00;100904.25;5071326;28;20063;-84
2021/06/28 02:20:27;;;;;;;14.93;12.27;;;;;;;17.62;100.00;100910.53;5052923;28;20119;-84
2021/06/28 02:22:53;;;;;;;14.93;12.73;;;;;;;17.60;100.00;100915.31;5103480;28;20042;-84
2021/06/28 02:25:20;;;;;;;15.07;13.05;;;;;;;17.58;100.00;100914.72;5081579;28;20259;-85
2021/06/28 02:27:47;;;;;;;17.23;13.55;;;;;;;17.54;100.00;100919.69;5089415;28;20058;-83
2021/06/28 02:30:16;;;;;;;18.80;13.85;;;;;;;17.54;100.00;100918.88;5078899;28;20387;-84
2021/06/28 02:32:43;;;;;;;18.55;13.68;;;;;;;17.51;100.00;100920.09;5096686;28;20050;-83
2021/06/28 02:35:12;;;;;;;17.85;12.82;;;;;;;17.53;100.00;100914.50;5096949;28;20059;-83
2021/06/28 02:37:39;;;;;;;15.77;12.43;;;;;;;17.50;100.00;100920.34;5099545;28;20040;-83
2021/06/28 02:40:11;;;;;;;18.15;13.77;;;;;;;17.48;100.00;100917.81;5071405;28;20404;-82
2021/06/28 02:42:38;;;;;;;17.00;13.90;;;;;;;17.46;100.00;100909.03;5067303;28;20035;-83
2021/06/28 02:45:07;;;;;;;19.67;13.85;;;;;;;17.46;100.00;100910.91;5079127;28;20101;-83
2021/06/28 02:47:33;;;;;;;18.75;13.40;;;;;;;17.40;100.00;100907.16;5084629;28;20497;-83
2021/06/28 02:49:58;;;;;;;20.15;14.32;;;;;;;17.41;100.00;100902.59;5085339;28;20713;-82
2021/06/28 02:52:24;;;;;;;18.73;13.98;;;;;;;17.39;100.00;100907.38;5091820;28;20035;-84
2021/06/28 02:54:49;;;;;;;20.30;14.18;;;;;;;17.36;100.00;100925.72;5100776;28;20040;-84
2021/06/28 02:57:15;;;;;;;16.35;13.27;;;;;;;17.37;100.00;100919.25;5072523;28;20145;-84
2021/06/28 02:59:40;;;;;;;17.05;14.27;;;;;;;17.33;100.00;100907.16;5091711;28;20043;-84
2021/06/28 03:02:05;;;;;;;22.08;14.95;;;;;;;17.31;100.00;100897.53;5079422;28;20067;-84
2021/06/28 03:04:31;;;;;;;17.75;14.98;;;;;;;17.24;100.00;100892.13;5070159;28;20047;-84
2021/06/28 03:06:56;;;;;;;18.90;14.05;;;;;;;17.21;100.00;100900.66;5065128;28;20051;-83
2021/06/28 03:09:22;;;;;;;19.23;12.98;;;;;;;17.21;100.00;100914.22;5095095;28;20046;-84
2021/06/28 03:11:47;;;;;;;18.92;14.27;;;;;;;17.18;100.00;100920.06;5082375;28;20040;-83
2021/06/28 03:14:13;;;;;;;20.00;14.90;;;;;;;17.20;100.00;100911.72;5077978;28;20392;-83
2021/06/28 03:16:38;;;;;;;18.75;14.95;;;;;;;17.12;100.00;100918.16;5079517;28;20393;-83
2021/06/28 03:19:04;;;;;;;19.17;14.70;;;;;;;17.08;100.00;100911.47;5076426;28;20040;-84
2021/06/28 03:21:30;;;;;;;17.25;13.82;;;;;;;17.02;100.00;100920.41;5080659;28;20028;-83
2021/06/28 03:23:55;;;;;;;22.40;14.32;;;;;;;17.03;100.00;100917.53;5069148;28;20515;-84
2021/06/28 03:26:21;;;;;;;19.15;15.18;;;;;;;17.04;100.00;100918.34;5070758;28;20043;-83
2021/06/28 03:28:46;;;;;;;19.48;14.95;;;;;;;17.04;100.00;100912.94;5064038;28;20121;-83
2021/06/28 03:31:12;;;;;;;20.60;14.88;;;;;;;17.00;100.00;100908.94;5105598;28;20511;-83
2021/06/28 03:33:38;;;;;;;18.35;14.70;;;;;;;16.99;100.00;100916.25;5076945;28;20093;-83
2021/06/28 03:36:04;;;;;;;22.25;15.73;;;;;;;17.01;100.00;100914.16;5104703;28;20063;-83
2021/06/28 03:38:30;;;;;;;19.30;15.30;;;;;;;16.98;100.00;100909.16;5094082;28;20123;-83
2021/06/28 03:40:55;;;;;;;20.48;14.30;;;;;;;16.91;100.00;100913.69;5091817;28;20119;-84
2021/06/28 03:43:21;;;;;;;20.98;16.00;;;;;;;16.92;100.00;100913.50;5078250;28;20088;-83
2021/06/28 03:45:47;;;;;;;22.20;15.35;;;;;;;16.89;100.00;100908.50;5090007;28;20611;-83
2021/06/28 03:48:13;;;;;;;19.95;14.60;;;;;;;16.88;100.00;100914.09;5083956;28;20044;-83
2021/06/28 03:50:40;;;;;;;20.70;15.88;;;;;;;16.88;100.00;100916.81;5080345;28;20044;-83
2021/06/28 03:53:06;;;;;;;20.85;16.95;;;;;;;16.88;100.00;100925.78;5100296;28;20399;-83
2021/06/28 03:55:32;;;;;;;21.05;15.73;;;;;;;16.91;100.00;100914.53;5100276;28;20035;-83
2021/06/28 03:57:58;;;;;;;21.75;17.38;;;;;;;16.88;100.00;100909.53;5066886;28;20035;-83
2021/06/28 04:00:26;;;;;;;22.77;17.50;;;;;;;16.87;100.00;100902.44;5059317;28;20036;-83
2021/06/28 04:02:52;;;;;;;26.15;17.33;;;;;;;16.88;100.00;100904.09;5100948;28;20492;-83
2021/06/28 04:05:21;;;;;;;21.70;16.85;;;;;;;16.89;100.00;100907.66;5097460;28;20054;-83
2021/06/28 04:07:47;;;;;;;21.60;17.30;;;;;;;16.88;100.00;100914.94;5080631;28;20051;-82
2021/06/28 04:10:14;;;;;;;29.17;19.02;;;;;;;16.91;100.00;100911.00;5087428;28;20759;-84
2021/06/28 04:12:39;;;;;;;22.00;18.23;;;;;;;16.92;100.00;100913.50;5100730;28;20032;-84
2021/06/28 04:15:09;;;;;;;21.75;17.00;;;;;;;16.92;100.00;100907.25;5103714;28;20108;-84
2021/06/28 04:17:40;;;;;;;25.42;17.23;;;;;;;16.91;100.00;100919.94;5079878;28;20223;-83
2021/06/28 04:20:09;;;;;;;22.42;18.40;;;;;;;16.89;100.00;100916.63;5079837;28;20630;-85
2021/06/28 04:22:36;;;;;;;27.17;18.52;;;;;;;16.85;100.00;100925.34;5095074;28;20050;-85
2021/06/28 04:25:04;;;;;;;23.67;18.08;;;;;;;16.88;100.00;100925.78;5092769;28;20035;-85
2021/06/28 04:27:29;;;;;;;24.40;17.58;;;;;;;16.93;100.00;100922.47;5074194;28;20024;-85
2021/06/28 04:29:55;;;;;;;25.98;18.35;;;;;;;16.93;100.00;100930.59;5077850;28;20405;-84
2021/06/28 04:32:20;;;;;;;24.80;18.98;;;;;;;16.98;100.00;100925.41;5061598;28;20069;-85
2021/06/28 04:34:46;;;;;;;22.15;18.98;;;;;;;17.02;100.00;100925.84;5093381;28;20667;-86
2021/06/28 04:37:12;;;;;;;23.08;19.75;;;;;;;17.05;100.00;100926.25;5083224;28;20099;-85
2021/06/28 04:39:39;;;;;;;25.50;18.75;;;;;;;17.07;100.00;100932.31;5055653;28;20044;-84
2021/06/28 04:42:05;;;;;;;22.83;19.83;;;;;;;17.10;100.00;100926.50;5070956;28;20483;-86
2021/06/28 04:44:31;;;;;;;23.55;19.50;;;;;;;17.13;100.00;100920.66;5075533;28;20047;-85
2021/06/28 04:46:57;;;;;;;25.88;20.83;;;;;;;17.14;100.00;100925.03;5059110;28;20035;-85
2021/06/28 04:49:22;;;;;;;27.90;20.73;;;;;;;17.19;100.00;100923.59;5049088;28;20117;-83
2021/06/28 04:51:48;;;;;;;24.52;20.50;;;;;;;17.24;100.00;100921.13;5078719;28;20052;-85
2021/06/28 04:54:14;;;;;;;23.83;20.65;;;;;;;17.26;100.00;100930.72;5095093;28;20055;-84
2021/06/28 04:56:40;;;;;;;30.23;21.48;;;;;;;17.31;100.00;100930.91;5066815;28;20036;-84
2021/06/28 04:59:05;;;;;;;28.90;21.17;;;;;;;17.35;100.00;100926.78;5071323;28;20483;-84
2021/06/28 05:01:31;;;;;;;25.48;20.50;;;;;;;17.39;100.00;100931.78;5081248;28;20101;-85
2021/06/28 05:03:58;;;;;;;26.33;20.33;;;;;;;17.45;100.00;100925.53;5094790;28;20062;-85
2021/06/28 05:06:23;;;;;;;26.98;20.48;;;;;;;17.53;100.00;100933.47;5077849;28;20044;-85
2021/06/28 05:08:49;;;;;;;27.45;19.77;;;;;;;17.59;100.00;100938.06;5068810;28;20229;-85
2021/06/28 05:11:14;;;;;;;25.83;20.33;;;;;;;17.66;100.00;100936.19;5070420;28;20066;-85
2021/06/28 05:13:41;;;;;;;22.23;19.73;;;;;;;17.71;100.00;100930.97;5064566;28;20569;-84
2021/06/28 05:16:07;;;;;;;21.25;18.98;;;;;;;17.76;100.00;100928.50;5067283;28;20076;-85
2021/06/28 05:18:33;;;;;;;24.02;20.10;;;;;;;17.84;100.00;100923.91;5083587;28;20126;-85
2021/06/28 05:20:59;;;;;;;24.33;20.23;;;;;;;17.89;100.00;100916.81;5092419;28;20609;-85
2021/06/28 05:23:24;;;;;;;23.70;19.80;;;;;;;17.94;100.00;100913.47;5061915;28;20070;-84
2021/06/28 05:25:50;;;;;;;24.40;19.65;;;;;;;18.00;100.00;100915.34;5078132;28;20067;-86
2021/06/28 05:28:16;;;;;;;19.70;17.65;;;;;;;18.07;100.00;100907.19;5018035;28;20039;-85
2021/06/28 05:30:42;;;;;;;22.80;18.52;;;;;;;18.18;100.00;100912.84;5079640;28;20508;-85
2021/06/28 05:33:07;;;;;;;21.80;18.65;;;;;;;18.31;100.00;100919.28;5058026;28;20042;-85
2021/06/28 05:35:33;;;;;;;20.40;18.13;;;;;;;18.37;100.00;100918.44;5084412;28;20036;-84
2021/06/28 05:37:58;;;;;;;22.00;17.73;;;;;;;18.42;100.00;100910.50;5077669;28;20431;-84
2021/06/28 05:40:23;;;;;;;21.38;17.05;;;;;;;18.47;99.34;100902.50;5075458;28;20077;-84
2021/06/28 05:42:49;;;;;;;18.27;15.52;;;;;;;18.51;100.00;100901.06;5077486;28;20420;-85
2021/06/28 05:45:14;;;;;;;23.08;17.70;;;;;;;18.62;100.00;100905.00;5078659;28;20511;-85
2021/06/28 05:47:40;;;;;;;18.63;16.45;;;;;;;18.68;99.12;100909.56;5077764;28;20048;-85
2021/06/28 05:50:08;;;;;;;17.80;15.90;;;;;;;18.77;97.96;100905.59;5078522;28;20111;-85
2021/06/28 05:52:34;;;;;;;19.90;16.27;;;;;;;18.87;97.39;100902.41;5074936;28;20036;-86
2021/06/28 05:55:00;;;;;;;21.60;17.38;;;;;;;18.94;99.24;100903.22;5065499;28;20328;-85
2021/06/28 05:57:25;;;;;;;20.75;15.93;;;;;;;18.99;98.62;100897.97;5073976;28;20056;-86
2021/06/28 05:59:52;;;;;;;19.02;15.93;;;;;;;19.00;97.64;100905.06;5058583;28;20044;-85
2021/06/28 06:02:18;;;;;;;19.65;16.23;;;;;;;19.10;98.21;100908.16;5058203;28;20130;-85
2021/06/28 06:04:45;;;;;;;17.65;15.52;;;;;;;19.15;97.75;100905.59;5047839;28;20048;-85
2021/06/28 06:07:10;;;;;;;17.55;15.68;;;;;;;19.17;96.46;100914.38;5075470;28;20721;-85
2021/06/28 06:09:37;;;;;;;18.15;15.95;;;;;;;19.22;96.39;100913.75;5068136;28;20040;-85
2021/06/28 06:12:02;;;;;;;16.73;15.02;;;;;;;19.28;95.52;100910.13;5066275;28;20105;-85
2021/06/28 06:14:28;;;;;;;19.58;16.33;;;;;;;19.37;96.25;100910.72;5080957;28;21973;-86
2021/06/28 06:16:54;;;;;;;20.20;15.40;;;;;;;19.48;96.29;100903.72;5046748;28;20443;-86
2021/06/28 06:19:20;;;;;;;18.50;15.95;;;;;;;19.55;96.88;100901.78;5078942;28;20069;-86
2021/06/28 06:21:46;;;;;;;18.00;15.98;;;;;;;19.62;95.67;100899.84;5049047;28;20422;-86
2021/06/28 06:24:13;;;;;;;19.58;14.85;;;;;;;19.74;95.27;100902.72;5098232;28;20488;-85
2021/06/28 06:26:38;;;;;;;17.73;15.23;;;;;;;19.82;94.24;100903.28;5079252;28;20051;-85
2021/06/28 06:29:04;;;;;;;18.98;15.35;;;;;;;19.86;94.42;100890.06;5063984;28;20036;-85
2021/06/28 06:31:30;;;;;;;19.15;14.32;;;;;;;19.94;94.95;100892.50;5079817;28;20054;-86
2021/06/28 06:33:57;;;;;;;18.02;15.75;;;;;;;20.03;93.75;100890.31;5070734;28;20123;-85
2021/06/28 06:36:22;;;;;;;19.30;15.15;;;;;;;20.14;93.94;100895.03;5097248;28;20036;-85
2021/06/28 06:38:49;;;;;;;19.73;15.43;;;;;;;20.20;93.45;100896.03;5079334;28;20055;-86
2021/06/28 06:41:14;;;;;;;18.35;15.82;;;;;;;20.26;93.04;100892.41;5080492;28;20040;-87
2021/06/28 06:43:40;;;;;;;18.23;14.73;;;;;;;20.34;93.73;100894.81;5077228;28;20051;-86
2021/06/28 06:46:05;;;;;;;19.08;15.70;;;;;;;20.46;93.60;100901.19;5065402;28;20058;-86
2021/06/28 06:48:31;;;;;;;17.67;15.40;;;;;;;20.47;92.44;100894.66;5078285;28;20039;-86
2021/06/28 06:50:57;;;;;;;16.58;14.02;;;;;;;20.48;92.53;100898.22;5079214;28;20514;-86
2021/06/28 06:53:23;;;;;;;20.27;16.27;;;;;;;20.58;93.31;100895.00;5081308;28;20138;-86
2021/06/28 06:55:50;;;;;;;19.00;16.08;;;;;;;20.68;92.50;100898.00;5064271;28;20046;-86
2021/06/28 06:58:15;;;;;;;16.63;14.13;;;;;;;20.79;93.94;100890.97;5077606;28;20039;-86
2021/06/28 07:00:42;;;;;;;17.92;13.93;;;;;;;20.89;91.64;100897.53;5081378;28;20035;-86
2021/06/28 07:03:08;;;;;;;17.73;14.82;;;;;;;20.93;90.38;100890.56;5080369;28;20426;-86
2021/06/28 07:05:34;;;;;;;15.55;14.05;;;;;;;21.13;92.69;100898.47;5082903;28;20081;-86
2021/06/28 07:07:59;;;;;;;18.48;15.05;;;;;;;21.26;91.79;100889.28;5077882;28;20047;-86
2021/06/28 07:10:28;;;;;;;15.60;13.98;;;;;;;21.20;88.60;100895.63;5081812;28;20055;-86
2021/06/28 07:12:53;;;;;;;15.40;13.82;;;;;;;21.29;89.95;100899.72;5062942;28;20640;-86
2021/06/28 07:15:22;;;;;;;15.68;14.05;;;;;;;21.34;88.66;100901.72;5067125;28;20044;-86
2021/06/28 07:17:49;;;;;;;14.95;13.35;;;;;;;21.37;87.76;100899.41;5071331;28;20040;-86
2021/06/28 07:20:21;;;;;;;17.52;13.30;;;;;;;21.53;89.43;100891.63;5080835;28;20203;-86
2021/06/28 07:22:48;;;;;;;16.83;14.02;;;;;;;21.59;88.67;100894.22;5076411;28;20044;-86
2021/06/28 07:25:15;;;;;;;16.80;14.55;;;;;;;21.68;89.03;100892.00;5093687;28;20484;-86
2021/06/28 07:27:42;;;;;;;16.00;14.32;;;;;;;21.70;88.02;100892.59;5050853;28;20066;-86
2021/06/28 07:30:11;;;;;;;17.08;14.00;;;;;;;21.83;87.67;100884.16;5075982;28;20429;-86
2021/06/28 07:32:37;;;;;;;16.83;13.32;;;;;;;21.85;86.34;100884.75;5081094;28;20039;-86
2021/06/28 07:35:04;;;;;;;16.15;14.48;;;;;;;21.98;87.71;100889.19;5078404;28;20039;-86
2021/06/28 07:37:30;;;;;;;14.90;13.30;;;;;;;22.02;86.43;100884.06;5084335;28;20100;-86
2021/06/28 07:39:55;;;;;;;17.55;13.25;;;;;;;22.02;85.19;100887.63;5101004;28;20051;-87
2021/06/28 07:42:21;;;;;;;15.10;13.50;;;;;;;22.14;86.05;100893.06;5058769;28;20048;-86
2021/06/28 07:44:46;;;;;;;16.63;13.32;;;;;;;22.14;84.59;100894.97;5056850;28;20514;-86
2021/06/28 07:47:15;;;;;;;17.38;14.10;;;;;;;22.12;83.36;100895.22;5059093;28;20043;-85
2021/06/28 07:49:40;;;;;;;16.13;13.68;;;;;;;22.23;85.68;100893.56;5060042;28;20036;-87
2021/06/28 07:52:09;;;;;;;15.48;13.82;;;;;;;22.33;85.61;100887.50;5072857;28;20131;-86
2021/06/28 07:54:35;;;;;;;16.83;14.80;;;;;;;22.41;83.77;100898.91;5062650;28;20789;-86
2021/06/28 07:57:01;;;;;;;15.70;14.10;;;;;;;22.46;83.25;100903.66;5048793;28;20072;-85
2021/06/28 07:59:27;;;;;;;15.93;14.27;;;;;;;22.53;82.62;100907.94;5047999;28;20114;-86
2021/06/28 08:01:52;;;;;;;16.35;14.63;;;;;;;22.59;84.54;100906.13;5095448;28;20066;-86
2021/06/28 08:04:19;;;;;;;16.45;14.77;;;;;;;22.57;82.02;100915.66;5078648;28;20122;-86
2021/06/28 08:06:46;;;;;;;18.15;14.40;;;;;;;22.66;83.73;100914.19;5059090;28;20055;-86
2021/06/28 08:09:12;;;;;;;15.50;12.95;;;;;;;22.87;83.52;100912.69;5042253;28;20055;-87
2021/06/28 08:11:37;;;;;;;17.30;14.43;;;;;;;22.92;81.56;100918.28;5061111;28;20040;-87
2021/06/28 08:14:05;;;;;;;17.77;14.30;;;;;;;23.01;83.91;100919.59;5065490;28;20104;-86
2021/06/28 08:16:30;;;;;;;16.50;14.43;;;;;;;23.00;81.87;100915.19;5081390;28;20044;-87
2021/06/28 08:18:56;;;;;;;16.70;14.95;;;;;;;22.98;81.67;100917.34;5067904;28;20037;-86
2021/06/28 08:21:21;;;;;;;17.58;13.90;;;;;;;23.19;83.79;100913.94;5081577;28;20044;-87
2021/06/28 08:23:47;;;;;;;15.73;14.10;;;;;;;23.31;81.88;100913.88;5045111;28;20496;-86
2021/06/28 08:26:16;;;;;;;16.58;14.93;;;;;;;23.43;81.68;100911.06;5067826;28;20078;-86
2021/06/28 08:28:41;;;;;;;16.33;14.40;;;;;;;23.48;81.38;100905.69;5071386;28;20048;-87
2021/06/28 08:31:07;;;;;;;16.95;14.43;;;;;;;23.50;80.75;100905.44;5061718;28;20411;-86
2021/06/28 08:33:33;;;;;;;15.45;13.77;;;;;;;23.63;82.64;100916.91;5055905;28;20059;-87
2021/06/28 08:35:59;;;;;;;15.95;14.32;;;;;;;23.72;81.65;100900.09;5083048;28;20040;-87
2021/06/28 08:38:24;;;;;;;16.10;13.80;;;;;;;23.78;79.88;100915.53;5077723;28;20119;-87
2021/06/28 08:40:52;;;;;;;13.27;11.88;;;;;;;23.87;78.73;100901.16;5079480;28;20119;-87
2021/06/28 08:43:18;;;;;;;14.33;12.67;;;;;;;23.93;77.34;100906.72;5055175;28;20036;-87
2021/06/28 08:45:44;;;;;;;14.70;12.57;;;;;;;24.03;78.12;100907.72;5079102;28;20384;-87
2021/06/28 08:48:10;;;;;;;13.75;12.32;;;;;;;24.12;77.23;100907.28;5081992;28;20079;-88
2021/06/28 08:50:38;;;;;;;14.68;12.65;;;;;;;24.29;77.67;100895.19;5088025;28;20074;-86
2021/06/28 08:53:05;;;;;;;14.55;13.05;;;;;;;24.37;75.42;100904.91;5083635;28;20082;-87
2021/06/28 08:55:32;;;;;;;15.45;13.55;;;;;;;24.43;75.95;100903.09;5078106;28;20048;-87
2021/06/28 08:57:57;;;;;;;13.20;11.90;;;;;;;24.59;76.96;100901.38;5072284;28;20396;-87
2021/06/28 09:00:23;;;;;;;14.48;12.30;;;;;;;24.64;74.78;100896.78;5061814;28;20028;-87
2021/06/28 09:03:14;;;;;;;14.05;11.60;;;;;;;24.80;75.07;100902.44;5075138;28;20067;-87
2021/06/28 09:05:51;;;;;;;13.07;11.77;;;;;;;24.91;74.40;100901.47;5054759;28;20033;-87
2021/06/28 09:08:17;;;;;;;14.32;12.68;;;;;;;24.88;75.05;100897.34;5078052;28;20493;-87
2021/06/28 09:10:44;;;;;;;13.63;12.10;;;;;;;25.00;74.12;100905.44;5048899;28;20405;-88
2021/06/28 09:13:11;;;;;;;12.27;11.07;;;;;;;25.08;74.98;100902.22;5069022;28;20686;-86
2021/06/28 09:15:49;;;;;;;14.30;12.82;;;;;;;25.06;72.86;100895.34;5078881;28;20075;-87
2021/06/28 09:18:21;;;;;;;14.65;13.25;;;;;;;25.01;72.53;100878.84;5074039;28;20128;-87
2021/06/28 09:20:48;;;;;;;14.43;12.98;;;;;;;25.17;73.44;100884.22;5072354;28;20032;-87
2021/06/28 09:23:25;;;;;;;14.85;13.00;;;;;;;25.31;74.52;100884.63;5074997;28;20076;-86
2021/06/28 09:25:53;;;;;;;15.23;13.15;;;;;;;25.33;73.51;100890.72;5076963;28;20044;-87
2021/06/28 09:28:42;;;;;;;15.18;13.57;;;;;;;25.10;72.54;100899.25;5084045;28;20044;-88
2021/06/28 09:31:10;;;;;;;13.48;11.70;;;;;;;25.24;75.93;100895.03;5031609;28;20044;-87
2021/06/28 09:33:35;;;;;;;12.97;11.77;;;;;;;25.36;72.33;100897.59;5050453;28;20036;-87
2021/06/28 09:36:20;;;;;;;12.75;11.18;;;;;;;25.40;71.13;100888.56;5057901;28;20048;-87
2021/06/28 09:38:45;;;;;;;12.80;11.27;;;;;;;25.55;73.60;100884.28;5073081;28;20075;-87
2021/06/28 09:41:20;;;;;;;13.75;11.82;;;;;;;25.83;73.27;100880.44;5071883;28;20074;-87
2021/06/28 09:43:45;;;;;;;12.20;10.57;;;;;;;26.04;70.96;100886.91;5074961;28;20070;-87
2021/06/28 09:46:20;;;;;;;13.50;10.80;;;;;;;26.11;70.41;100882.00;5095138;28;20040;-87
2021/06/28 09:48:50;;;;;;;11.40;10.30;;;;;;;26.14;70.29;100870.47;5081224;28;20042;-87
2021/06/28 09:51:26;;;;;;;12.27;10.02;;;;;;;26.30;69.22;100874.16;5095820;28;20089;-87
2021/06/28 09:54:06;;;;;;;11.70;8.90;;;;;;;26.28;68.32;100868.06;5062852;28;20500;-87
2021/06/28 09:56:42;;;;;;;11.57;9.82;;;;;;;26.10;68.94;100874.84;5079953;28;21000;-88
2021/06/28 09:59:31;;;;;;;11.18;9.82;;;;;;;26.07;70.75;100865.22;5082252;28;20480;-87
2021/06/28 10:02:15;;;;;;;11.48;10.38;;;;;;;26.16;70.66;100861.97;5100746;28;20466;-88
2021/06/28 10:04:59;;;;;;;11.18;10.05;;;;;;;26.11;69.62;100871.81;5097070;28;20052;-87
2021/06/28 10:07:40;;;;;;;12.25;10.68;;;;;;;26.05;69.72;100875.66;5095529;28;20054;-89
2021/06/28 10:10:11;;;;;;;12.25;11.05;;;;;;;25.91;69.93;100870.88;5099692;28;20047;-87
2021/06/28 10:12:39;;;;;;;11.93;10.32;;;;;;;25.87;70.54;100882.41;5072028;28;20397;-87
2021/06/28 10:15:09;;;;;;;12.40;9.98;;;;;;;25.93;70.06;100890.69;5080171;28;20035;-89
2021/06/28 10:17:38;;;;;;;9.48;8.27;;;;;;;25.85;68.59;100903.81;5051394;28;20046;-89
2021/06/28 10:20:04;;;;;;;;;;;;;;;25.78;68.09;100902.34;5085397;28;20055;-88
2021/06/28 10:22:31;;;;;;;10.05;9.05;;;;;;;25.69;69.43;100907.50;5076743;28;20299;-87
2021/06/28 10:24:57;;;;;;;11.13;8.50;;;;;;;25.64;69.96;100911.06;5072619;28;20081;-87
2021/06/28 10:27:22;;;;;;;10.63;9.45;;;;;;;25.60;70.26;100900.84;5061322;28;20496;-87
2021/06/28 10:29:48;;;;;;;10.63;9.52;;;;;;;25.61;70.72;100894.25;5070491;28;20033;-87
2021/06/28 10:32:14;;;;;;;12.05;9.40;;;;;;;25.58;69.88;100898.38;5085389;28;20097;-85
2021/06/28 10:34:40;;;;;;;10.55;9.45;;;;;;;25.55;70.93;100898.88;5043400;28;20489;-85
2021/06/28 10:37:43;;;;;;;11.57;9.43;;;;;;;25.55;71.72;100906.28;5078110;28;20071;-87
2021/06/28 10:40:13;;;;;;;12.30;10.55;;;;;;;25.41;69.63;100900.41;5063322;28;20046;-86
2021/06/28 10:42:44;;;;;;;11.50;10.40;;;;;;;25.46;69.85;100899.59;5077379;28;20036;-86
2021/06/28 10:45:12;;;;;;;11.30;10.18;;;;;;;25.57;69.52;100898.59;5065886;28;20029;-86
2021/06/28 10:47:41;;;;;;;10.55;9.27;;;;;;;25.63;69.23;100895.63;5072148;28;20124;-86
2021/06/28 10:50:08;;;;;;;11.30;9.70;;;;;;;25.81;67.51;100899.91;5070228;28;20047;-86
2021/06/28 10:52:33;;;;;;;10.18;9.23;;;;;;;25.89;67.56;100895.88;5072617;28;20036;-86
2021/06/28 10:55:17;;;;;;;12.38;11.07;;;;;;;25.93;68.07;100890.69;5070993;28;20040;-85
2021/06/28 10:57:44;;;;;;;12.48;11.18;;;;;;;25.91;68.24;100887.38;5079718;28;20052;-86
2021/06/28 11:00:10;;;;;;;13.18;11.35;;;;;;;25.91;67.99;100898.38;5077755;28;20048;-86
2021/06/28 11:02:40;;;;;;;12.75;11.45;;;;;;;25.98;68.11;100887.94;5077044;28;20352;-86
2021/06/28 11:05:08;;;;;;;14.38;11.65;;;;;;;26.02;68.96;100891.84;5075828;28;20039;-86
2021/06/28 11:07:47;;;;;;;14.70;12.15;;;;;;;26.07;68.28;100886.38;5104576;28;20115;-85